sensor_id;sensor_type;location;lat;lon;timestamp;P1;durP1;ratioP1;P2;durP2;ratioP2
51082;SDS011;37131;42.694;23.350;2024-03-02T00:02:00;31.98;;;14.13;;
51082;SDS011;37131;42.694;23.350;2024-03-02T00:04:26;34.78;;;14.32;;
51082;SDS011;37131;42.694;23.350;2024-03-02T00:06:52;33.55;;;14.30;;
51082;SDS011;37131;42.694;23.350;2024-03-02T00:09:19;34.42;;;13.70;;
51082;SDS011;37131;42.694;23.350;2024-03-02T00:11:45;28.33;;;13.00;;
51082;SDS011;37131;42.694;23.350;2024-03-02T00:14:11;27.63;;;12.18;;
51082;SDS011;37131;42.694;23.350;2024-03-02T00:16:37;31.17;;;12.55;;
51082;SDS011;37131;42.694;23.350;2024-03-02T00:19:03;30.42;;;12.85;;
51082;SDS011;37131;42.694;23.350;2024-03-02T00:21:31;30.20;;;13.60;;
51082;SDS011;37131;42.694;23.350;2024-03-02T00:23:58;29.75;;;13.50;;
51082;SDS011;37131;42.694;23.350;2024-03-02T00:26:23;29.63;;;13.52;;
51082;SDS011;37131;42.694;23.350;2024-03-02T00:28:49;31.58;;;13.38;;
51082;SDS011;37131;42.694;23.350;2024-03-02T00:31:16;31.92;;;14.73;;
51082;SDS011;37131;42.694;23.350;2024-03-02T00:33:45;33.25;;;12.98;;
51082;SDS011;37131;42.694;23.350;2024-03-02T00:36:24;29.58;;;13.65;;
51082;SDS011;37131;42.694;23.350;2024-03-02T00:38:52;33.90;;;13.15;;
51082;SDS011;37131;42.694;23.350;2024-03-02T00:41:21;31.55;;;12.98;;
51082;SDS011;37131;42.694;23.350;2024-03-02T00:43:53;34.72;;;13.55;;
51082;SDS011;37131;42.694;23.350;2024-03-02T00:46:22;30.35;;;13.07;;
51082;SDS011;37131;42.694;23.350;2024-03-02T00:48:51;32.33;;;12.95;;
51082;SDS011;37131;42.694;23.350;2024-03-02T00:51:22;31.98;;;12.60;;
51082;SDS011;37131;42.694;23.350;2024-03-02T00:53:48;33.42;;;12.65;;
51082;SDS011;37131;42.694;23.350;2024-03-02T00:56:15;33.53;;;14.23;;
51082;SDS011;37131;42.694;23.350;2024-03-02T00:58:41;26.92;;;11.50;;
51082;SDS011;37131;42.694;23.350;2024-03-02T01:01:06;32.40;;;14.20;;
51082;SDS011;37131;42.694;23.350;2024-03-02T01:03:32;29.83;;;13.35;;
51082;SDS011;37131;42.694;23.350;2024-03-02T01:05:58;28.48;;;12.93;;
51082;SDS011;37131;42.694;23.350;2024-03-02T01:08:24;29.42;;;13.73;;
51082;SDS011;37131;42.694;23.350;2024-03-02T01:10:51;29.77;;;12.90;;
51082;SDS011;37131;42.694;23.350;2024-03-02T01:13:16;27.38;;;12.25;;
51082;SDS011;37131;42.694;23.350;2024-03-02T01:15:41;32.80;;;13.57;;
51082;SDS011;37131;42.694;23.350;2024-03-02T01:18:07;31.10;;;13.27;;
51082;SDS011;37131;42.694;23.350;2024-03-02T01:20:32;29.20;;;12.90;;
51082;SDS011;37131;42.694;23.350;2024-03-02T01:22:58;29.88;;;12.98;;
51082;SDS011;37131;42.694;23.350;2024-03-02T01:25:23;28.13;;;13.70;;
51082;SDS011;37131;42.694;23.350;2024-03-02T01:27:49;29.35;;;13.68;;
51082;SDS011;37131;42.694;23.350;2024-03-02T01:30:15;29.85;;;13.75;;
51082;SDS011;37131;42.694;23.350;2024-03-02T01:32:41;31.08;;;13.75;;
51082;SDS011;37131;42.694;23.350;2024-03-02T01:35:06;31.95;;;13.80;;
51082;SDS011;37131;42.694;23.350;2024-03-02T01:37:32;36.13;;;13.35;;
51082;SDS011;37131;42.694;23.350;2024-03-02T01:39:58;28.30;;;13.65;;
51082;SDS011;37131;42.694;23.350;2024-03-02T01:42:23;37.28;;;14.60;;
51082;SDS011;37131;42.694;23.350;2024-03-02T01:44:49;37.00;;;15.60;;
51082;SDS011;37131;42.694;23.350;2024-03-02T01:47:14;33.65;;;15.52;;
51082;SDS011;37131;42.694;23.350;2024-03-02T01:49:40;31.73;;;15.07;;
51082;SDS011;37131;42.694;23.350;2024-03-02T01:52:06;38.22;;;15.40;;
51082;SDS011;37131;42.694;23.350;2024-03-02T01:54:32;35.30;;;15.80;;
51082;SDS011;37131;42.694;23.350;2024-03-02T01:56:57;38.33;;;15.73;;
51082;SDS011;37131;42.694;23.350;2024-03-02T01:59:23;35.28;;;15.52;;
51082;SDS011;37131;42.694;23.350;2024-03-02T02:01:49;32.88;;;14.27;;
51082;SDS011;37131;42.694;23.350;2024-03-02T02:04:15;36.08;;;15.05;;
51082;SDS011;37131;42.694;23.350;2024-03-02T02:06:40;36.58;;;15.02;;
51082;SDS011;37131;42.694;23.350;2024-03-02T02:09:05;30.55;;;14.68;;
51082;SDS011;37131;42.694;23.350;2024-03-02T02:11:33;35.78;;;14.18;;
51082;SDS011;37131;42.694;23.350;2024-03-02T02:13:59;32.95;;;14.20;;
51082;SDS011;37131;42.694;23.350;2024-03-02T02:16:24;33.88;;;14.73;;
51082;SDS011;37131;42.694;23.350;2024-03-02T02:18:49;33.90;;;14.07;;
51082;SDS011;37131;42.694;23.350;2024-03-02T02:21:15;33.53;;;14.00;;
51082;SDS011;37131;42.694;23.350;2024-03-02T02:23:40;32.55;;;13.90;;
51082;SDS011;37131;42.694;23.350;2024-03-02T02:26:11;36.63;;;14.65;;
51082;SDS011;37131;42.694;23.350;2024-03-02T02:28:36;34.65;;;14.32;;
51082;SDS011;37131;42.694;23.350;2024-03-02T02:31:02;34.08;;;14.77;;
51082;SDS011;37131;42.694;23.350;2024-03-02T02:33:28;35.78;;;14.40;;
51082;SDS011;37131;42.694;23.350;2024-03-02T02:35:53;30.60;;;14.25;;
51082;SDS011;37131;42.694;23.350;2024-03-02T02:38:19;33.33;;;13.68;;
51082;SDS011;37131;42.694;23.350;2024-03-02T02:40:45;39.72;;;15.63;;
51082;SDS011;37131;42.694;23.350;2024-03-02T02:43:10;34.30;;;14.07;;
51082;SDS011;37131;42.694;23.350;2024-03-02T02:45:36;30.52;;;13.18;;
51082;SDS011;37131;42.694;23.350;2024-03-02T02:48:01;36.90;;;16.30;;
51082;SDS011;37131;42.694;23.350;2024-03-02T02:50:27;36.40;;;15.05;;
51082;SDS011;37131;42.694;23.350;2024-03-02T02:52:53;40.00;;;16.33;;
51082;SDS011;37131;42.694;23.350;2024-03-02T02:55:18;36.42;;;15.32;;
51082;SDS011;37131;42.694;23.350;2024-03-02T02:57:44;39.80;;;14.90;;
51082;SDS011;37131;42.694;23.350;2024-03-02T03:00:11;47.42;;;17.67;;
51082;SDS011;37131;42.694;23.350;2024-03-02T03:02:44;65.03;;;30.33;;
51082;SDS011;37131;42.694;23.350;2024-03-02T03:05:13;79.97;;;34.25;;
51082;SDS011;37131;42.694;23.350;2024-03-02T03:07:39;98.03;;;44.08;;
51082;SDS011;37131;42.694;23.350;2024-03-02T03:10:05;103.25;;;44.92;;
51082;SDS011;37131;42.694;23.350;2024-03-02T03:12:31;106.72;;;46.60;;
51082;SDS011;37131;42.694;23.350;2024-03-02T03:14:57;72.65;;;34.75;;
51082;SDS011;37131;42.694;23.350;2024-03-02T03:17:23;74.13;;;31.80;;
51082;SDS011;37131;42.694;23.350;2024-03-02T03:19:48;64.53;;;29.45;;
51082;SDS011;37131;42.694;23.350;2024-03-02T03:22:14;62.47;;;27.00;;
51082;SDS011;37131;42.694;23.350;2024-03-02T03:24:40;53.67;;;23.60;;
51082;SDS011;37131;42.694;23.350;2024-03-02T03:27:05;58.38;;;22.55;;
51082;SDS011;37131;42.694;23.350;2024-03-02T03:29:31;54.25;;;22.20;;
51082;SDS011;37131;42.694;23.350;2024-03-02T03:31:56;46.85;;;19.35;;
51082;SDS011;37131;42.694;23.350;2024-03-02T03:34:21;55.67;;;19.83;;
51082;SDS011;37131;42.694;23.350;2024-03-02T03:36:47;37.65;;;15.60;;
51082;SDS011;37131;42.694;23.350;2024-03-02T03:39:12;37.75;;;16.08;;
51082;SDS011;37131;42.694;23.350;2024-03-02T03:41:37;41.15;;;16.10;;
51082;SDS011;37131;42.694;23.350;2024-03-02T03:44:03;37.78;;;15.95;;
51082;SDS011;37131;42.694;23.350;2024-03-02T03:46:28;41.45;;;17.05;;
51082;SDS011;37131;42.694;23.350;2024-03-02T03:48:54;42.35;;;15.60;;
51082;SDS011;37131;42.694;23.350;2024-03-02T03:51:21;43.13;;;17.35;;
51082;SDS011;37131;42.694;23.350;2024-03-02T03:53:47;29.95;;;14.20;;
51082;SDS011;37131;42.694;23.350;2024-03-02T03:56:13;41.33;;;15.63;;
51082;SDS011;37131;42.694;23.350;2024-03-02T03:58:38;42.13;;;17.55;;
51082;SDS011;37131;42.694;23.350;2024-03-02T04:01:04;37.65;;;16.88;;
51082;SDS011;37131;42.694;23.350;2024-03-02T04:03:29;37.38;;;15.98;;
51082;SDS011;37131;42.694;23.350;2024-03-02T04:05:55;38.67;;;15.68;;
51082;SDS011;37131;42.694;23.350;2024-03-02T04:08:21;39.60;;;16.38;;
51082;SDS011;37131;42.694;23.350;2024-03-02T04:10:46;44.17;;;17.80;;
51082;SDS011;37131;42.694;23.350;2024-03-02T04:13:11;39.63;;;16.40;;
51082;SDS011;37131;42.694;23.350;2024-03-02T04:15:37;40.38;;;17.10;;
51082;SDS011;37131;42.694;23.350;2024-03-02T04:18:02;45.15;;;16.90;;
51082;SDS011;37131;42.694;23.350;2024-03-02T04:20:28;40.22;;;16.23;;
51082;SDS011;37131;42.694;23.350;2024-03-02T04:22:54;39.08;;;15.98;;
51082;SDS011;37131;42.694;23.350;2024-03-02T04:25:20;34.90;;;15.10;;
51082;SDS011;37131;42.694;23.350;2024-03-02T04:27:45;40.53;;;16.38;;
51082;SDS011;37131;42.694;23.350;2024-03-02T04:30:11;37.55;;;15.70;;
51082;SDS011;37131;42.694;23.350;2024-03-02T04:32:36;34.60;;;14.38;;
51082;SDS011;37131;42.694;23.350;2024-03-02T04:35:02;34.92;;;14.55;;
51082;SDS011;37131;42.694;23.350;2024-03-02T04:37:27;39.88;;;16.20;;
51082;SDS011;37131;42.694;23.350;2024-03-02T04:39:53;34.38;;;14.57;;
51082;SDS011;37131;42.694;23.350;2024-03-02T04:42:18;33.25;;;14.93;;
51082;SDS011;37131;42.694;23.350;2024-03-02T04:44:44;39.03;;;15.32;;
51082;SDS011;37131;42.694;23.350;2024-03-02T04:47:09;31.25;;;13.63;;
51082;SDS011;37131;42.694;23.350;2024-03-02T04:49:34;36.63;;;14.57;;
51082;SDS011;37131;42.694;23.350;2024-03-02T04:52:00;32.65;;;14.85;;
51082;SDS011;37131;42.694;23.350;2024-03-02T04:54:25;36.78;;;15.50;;
51082;SDS011;37131;42.694;23.350;2024-03-02T04:56:51;36.33;;;14.55;;
51082;SDS011;37131;42.694;23.350;2024-03-02T04:59:16;39.75;;;16.02;;
51082;SDS011;37131;42.694;23.350;2024-03-02T05:01:43;38.88;;;14.50;;
51082;SDS011;37131;42.694;23.350;2024-03-02T05:04:08;37.78;;;15.05;;
51082;SDS011;37131;42.694;23.350;2024-03-02T05:06:36;37.80;;;15.80;;
51082;SDS011;37131;42.694;23.350;2024-03-02T05:09:08;36.50;;;15.27;;
51082;SDS011;37131;42.694;23.350;2024-03-02T05:11:34;37.53;;;15.02;;
51082;SDS011;37131;42.694;23.350;2024-03-02T05:14:03;31.75;;;13.70;;
51082;SDS011;37131;42.694;23.350;2024-03-02T05:16:28;38.95;;;15.90;;
51082;SDS011;37131;42.694;23.350;2024-03-02T05:18:54;43.13;;;15.80;;
51082;SDS011;37131;42.694;23.350;2024-03-02T05:21:19;37.05;;;14.48;;
51082;SDS011;37131;42.694;23.350;2024-03-02T05:23:45;32.65;;;13.93;;
51082;SDS011;37131;42.694;23.350;2024-03-02T05:26:10;37.00;;;14.77;;
51082;SDS011;37131;42.694;23.350;2024-03-02T05:28:38;36.08;;;15.35;;
51082;SDS011;37131;42.694;23.350;2024-03-02T05:31:04;37.25;;;15.85;;
51082;SDS011;37131;42.694;23.350;2024-03-02T05:33:30;44.65;;;16.33;;
51082;SDS011;37131;42.694;23.350;2024-03-02T05:35:56;48.45;;;17.95;;
51082;SDS011;37131;42.694;23.350;2024-03-02T05:38:22;48.17;;;18.50;;
51082;SDS011;37131;42.694;23.350;2024-03-02T05:40:47;46.90;;;17.70;;
51082;SDS011;37131;42.694;23.350;2024-03-02T05:43:13;50.10;;;17.48;;
51082;SDS011;37131;42.694;23.350;2024-03-02T05:45:38;51.53;;;18.90;;
51082;SDS011;37131;42.694;23.350;2024-03-02T05:48:05;53.00;;;18.85;;
51082;SDS011;37131;42.694;23.350;2024-03-02T05:50:34;50.90;;;19.23;;
51082;SDS011;37131;42.694;23.350;2024-03-02T05:53:00;50.85;;;19.27;;
51082;SDS011;37131;42.694;23.350;2024-03-02T05:55:25;55.38;;;19.88;;
51082;SDS011;37131;42.694;23.350;2024-03-02T05:57:50;49.63;;;18.33;;
51082;SDS011;37131;42.694;23.350;2024-03-02T06:00:22;54.05;;;18.15;;
51082;SDS011;37131;42.694;23.350;2024-03-02T06:02:47;61.50;;;20.65;;
51082;SDS011;37131;42.694;23.350;2024-03-02T06:05:13;59.20;;;20.77;;
51082;SDS011;37131;42.694;23.350;2024-03-02T06:07:40;57.30;;;20.75;;
51082;SDS011;37131;42.694;23.350;2024-03-02T06:10:05;57.83;;;20.63;;
51082;SDS011;37131;42.694;23.350;2024-03-02T06:12:32;49.85;;;18.83;;
51082;SDS011;37131;42.694;23.350;2024-03-02T06:14:57;51.17;;;19.20;;
51082;SDS011;37131;42.694;23.350;2024-03-02T06:17:23;49.13;;;19.02;;
51082;SDS011;37131;42.694;23.350;2024-03-02T06:19:48;47.45;;;19.40;;
51082;SDS011;37131;42.694;23.350;2024-03-02T06:22:14;54.40;;;19.52;;
51082;SDS011;37131;42.694;23.350;2024-03-02T06:24:39;60.65;;;21.95;;
51082;SDS011;37131;42.694;23.350;2024-03-02T06:27:05;56.58;;;20.67;;
51082;SDS011;37131;42.694;23.350;2024-03-02T06:29:33;55.42;;;21.60;;
51082;SDS011;37131;42.694;23.350;2024-03-02T06:31:59;52.70;;;19.75;;
51082;SDS011;37131;42.694;23.350;2024-03-02T06:34:25;63.45;;;22.00;;
51082;SDS011;37131;42.694;23.350;2024-03-02T06:36:50;63.47;;;21.35;;
51082;SDS011;37131;42.694;23.350;2024-03-02T06:39:16;56.03;;;18.65;;
51082;SDS011;37131;42.694;23.350;2024-03-02T06:41:41;58.70;;;20.58;;
51082;SDS011;37131;42.694;23.350;2024-03-02T06:44:07;65.75;;;20.27;;
51082;SDS011;37131;42.694;23.350;2024-03-02T06:46:33;51.53;;;18.83;;
51082;SDS011;37131;42.694;23.350;2024-03-02T06:48:58;53.90;;;20.52;;
51082;SDS011;37131;42.694;23.350;2024-03-02T06:51:23;49.20;;;18.92;;
51082;SDS011;37131;42.694;23.350;2024-03-02T06:53:49;47.70;;;18.48;;
51082;SDS011;37131;42.694;23.350;2024-03-02T06:56:14;55.15;;;19.88;;
51082;SDS011;37131;42.694;23.350;2024-03-02T06:58:40;63.30;;;20.25;;
51082;SDS011;37131;42.694;23.350;2024-03-02T07:01:05;52.78;;;20.05;;
51082;SDS011;37131;42.694;23.350;2024-03-02T07:03:30;49.15;;;19.75;;
51082;SDS011;37131;42.694;23.350;2024-03-02T07:05:56;49.38;;;20.08;;
51082;SDS011;37131;42.694;23.350;2024-03-02T07:08:22;50.90;;;19.85;;
51082;SDS011;37131;42.694;23.350;2024-03-02T07:10:47;49.78;;;19.67;;
51082;SDS011;37131;42.694;23.350;2024-03-02T07:13:13;55.22;;;19.48;;
51082;SDS011;37131;42.694;23.350;2024-03-02T07:15:38;52.53;;;18.80;;
51082;SDS011;37131;42.694;23.350;2024-03-02T07:18:22;48.03;;;18.52;;
51082;SDS011;37131;42.694;23.350;2024-03-02T07:20:47;52.88;;;19.30;;
51082;SDS011;37131;42.694;23.350;2024-03-02T07:23:14;44.60;;;16.17;;
51082;SDS011;37131;42.694;23.350;2024-03-02T07:25:39;49.28;;;17.45;;
51082;SDS011;37131;42.694;23.350;2024-03-02T07:28:05;44.33;;;18.30;;
51082;SDS011;37131;42.694;23.350;2024-03-02T07:30:32;43.83;;;15.82;;
51082;SDS011;37131;42.694;23.350;2024-03-02T07:32:57;47.05;;;17.38;;
51082;SDS011;37131;42.694;23.350;2024-03-02T07:35:23;49.78;;;16.85;;
51082;SDS011;37131;42.694;23.350;2024-03-02T07:37:52;49.65;;;17.55;;
51082;SDS011;37131;42.694;23.350;2024-03-02T07:40:18;53.05;;;17.77;;
51082;SDS011;37131;42.694;23.350;2024-03-02T07:42:44;48.00;;;17.02;;
51082;SDS011;37131;42.694;23.350;2024-03-02T07:45:10;45.05;;;15.77;;
51082;SDS011;37131;42.694;23.350;2024-03-02T07:47:36;43.03;;;16.17;;
51082;SDS011;37131;42.694;23.350;2024-03-02T07:50:02;50.60;;;18.02;;
51082;SDS011;37131;42.694;23.350;2024-03-02T07:52:31;47.53;;;18.58;;
51082;SDS011;37131;42.694;23.350;2024-03-02T07:54:56;51.10;;;18.05;;
51082;SDS011;37131;42.694;23.350;2024-03-02T07:57:24;43.70;;;17.10;;
51082;SDS011;37131;42.694;23.350;2024-03-02T07:59:50;47.83;;;17.27;;
51082;SDS011;37131;42.694;23.350;2024-03-02T08:02:15;48.35;;;19.20;;
51082;SDS011;37131;42.694;23.350;2024-03-02T08:04:41;44.30;;;17.25;;
51082;SDS011;37131;42.694;23.350;2024-03-02T08:07:06;46.63;;;17.60;;
51082;SDS011;37131;42.694;23.350;2024-03-02T08:09:32;51.58;;;18.77;;
51082;SDS011;37131;42.694;23.350;2024-03-02T08:11:57;44.53;;;17.55;;
51082;SDS011;37131;42.694;23.350;2024-03-02T08:14:23;48.75;;;16.88;;
51082;SDS011;37131;42.694;23.350;2024-03-02T08:16:49;51.63;;;18.08;;
51082;SDS011;37131;42.694;23.350;2024-03-02T08:19:14;45.97;;;17.45;;
51082;SDS011;37131;42.694;23.350;2024-03-02T08:21:40;51.75;;;18.63;;
51082;SDS011;37131;42.694;23.350;2024-03-02T08:24:06;48.47;;;19.15;;
51082;SDS011;37131;42.694;23.350;2024-03-02T08:26:31;44.08;;;16.60;;
51082;SDS011;37131;42.694;23.350;2024-03-02T08:28:57;40.83;;;16.02;;
51082;SDS011;37131;42.694;23.350;2024-03-02T08:31:24;43.70;;;17.75;;
51082;SDS011;37131;42.694;23.350;2024-03-02T08:33:49;45.75;;;17.25;;
51082;SDS011;37131;42.694;23.350;2024-03-02T08:36:14;48.45;;;17.50;;
51082;SDS011;37131;42.694;23.350;2024-03-02T08:38:40;39.58;;;16.02;;
51082;SDS011;37131;42.694;23.350;2024-03-02T08:41:06;46.78;;;16.80;;
51082;SDS011;37131;42.694;23.350;2024-03-02T08:43:32;43.03;;;17.55;;
51082;SDS011;37131;42.694;23.350;2024-03-02T08:45:58;49.35;;;17.98;;
51082;SDS011;37131;42.694;23.350;2024-03-02T08:48:23;47.75;;;18.63;;
51082;SDS011;37131;42.694;23.350;2024-03-02T08:50:49;43.60;;;17.67;;
51082;SDS011;37131;42.694;23.350;2024-03-02T08:53:14;50.00;;;21.10;;
51082;SDS011;37131;42.694;23.350;2024-03-02T08:55:44;46.92;;;19.17;;
51082;SDS011;37131;42.694;23.350;2024-03-02T08:58:10;46.28;;;19.40;;
51082;SDS011;37131;42.694;23.350;2024-03-02T09:00:36;51.33;;;20.33;;
51082;SDS011;37131;42.694;23.350;2024-03-02T09:03:01;42.63;;;18.15;;
51082;SDS011;37131;42.694;23.350;2024-03-02T09:05:27;41.65;;;16.88;;
51082;SDS011;37131;42.694;23.350;2024-03-02T09:07:52;44.58;;;17.00;;
51082;SDS011;37131;42.694;23.350;2024-03-02T09:10:17;33.55;;;15.38;;
51082;SDS011;37131;42.694;23.350;2024-03-02T09:12:43;40.55;;;17.00;;
51082;SDS011;37131;42.694;23.350;2024-03-02T09:15:08;36.78;;;14.98;;
51082;SDS011;37131;42.694;23.350;2024-03-02T09:17:34;38.50;;;15.50;;
51082;SDS011;37131;42.694;23.350;2024-03-02T09:19:59;44.78;;;16.52;;
51082;SDS011;37131;42.694;23.350;2024-03-02T09:22:25;39.38;;;15.82;;
51082;SDS011;37131;42.694;23.350;2024-03-02T09:24:50;39.15;;;16.40;;
51082;SDS011;37131;42.694;23.350;2024-03-02T09:27:15;40.35;;;16.83;;
51082;SDS011;37131;42.694;23.350;2024-03-02T09:29:41;37.20;;;15.50;;
51082;SDS011;37131;42.694;23.350;2024-03-02T09:32:07;46.33;;;16.92;;
51082;SDS011;37131;42.694;23.350;2024-03-02T09:34:37;42.83;;;16.55;;
51082;SDS011;37131;42.694;23.350;2024-03-02T09:37:02;48.80;;;19.48;;
51082;SDS011;37131;42.694;23.350;2024-03-02T09:39:29;40.53;;;17.83;;
51082;SDS011;37131;42.694;23.350;2024-03-02T09:41:54;46.03;;;17.70;;
51082;SDS011;37131;42.694;23.350;2024-03-02T09:44:21;44.05;;;17.85;;
51082;SDS011;37131;42.694;23.350;2024-03-02T09:46:50;44.45;;;17.17;;
51082;SDS011;37131;42.694;23.350;2024-03-02T09:49:16;36.80;;;16.52;;
51082;SDS011;37131;42.694;23.350;2024-03-02T09:51:44;44.67;;;18.30;;
51082;SDS011;37131;42.694;23.350;2024-03-02T09:54:12;40.20;;;16.20;;
51082;SDS011;37131;42.694;23.350;2024-03-02T09:56:38;40.30;;;17.75;;
51082;SDS011;37131;42.694;23.350;2024-03-02T09:59:04;35.70;;;15.45;;
51082;SDS011;37131;42.694;23.350;2024-03-02T10:01:30;33.03;;;13.43;;
51082;SDS011;37131;42.694;23.350;2024-03-02T10:03:56;38.83;;;13.68;;
51082;SDS011;37131;42.694;23.350;2024-03-02T10:06:25;35.28;;;15.05;;
51082;SDS011;37131;42.694;23.350;2024-03-02T10:08:51;36.60;;;14.88;;
51082;SDS011;37131;42.694;23.350;2024-03-02T10:11:30;35.90;;;14.68;;
51082;SDS011;37131;42.694;23.350;2024-03-02T10:14:04;37.83;;;15.75;;
51082;SDS011;37131;42.694;23.350;2024-03-02T10:16:34;41.47;;;15.77;;
51082;SDS011;37131;42.694;23.350;2024-03-02T10:19:14;36.38;;;15.27;;
51082;SDS011;37131;42.694;23.350;2024-03-02T10:21:47;40.85;;;16.15;;
51082;SDS011;37131;42.694;23.350;2024-03-02T10:24:14;37.90;;;15.48;;
51082;SDS011;37131;42.694;23.350;2024-03-02T10:26:40;36.10;;;14.55;;
51082;SDS011;37131;42.694;23.350;2024-03-02T10:29:07;38.92;;;14.88;;
51082;SDS011;37131;42.694;23.350;2024-03-02T10:31:33;37.20;;;13.85;;
51082;SDS011;37131;42.694;23.350;2024-03-02T10:34:00;35.35;;;13.23;;
51082;SDS011;37131;42.694;23.350;2024-03-02T10:36:27;37.05;;;14.55;;
51082;SDS011;37131;42.694;23.350;2024-03-02T10:38:53;37.08;;;14.77;;
51082;SDS011;37131;42.694;23.350;2024-03-02T10:41:26;34.67;;;14.40;;
51082;SDS011;37131;42.694;23.350;2024-03-02T10:43:52;35.40;;;14.98;;
51082;SDS011;37131;42.694;23.350;2024-03-02T10:46:24;36.40;;;14.75;;
51082;SDS011;37131;42.694;23.350;2024-03-02T10:48:54;37.47;;;15.82;;
51082;SDS011;37131;42.694;23.350;2024-03-02T10:51:19;35.22;;;13.38;;
51082;SDS011;37131;42.694;23.350;2024-03-02T10:53:45;36.95;;;13.80;;
51082;SDS011;37131;42.694;23.350;2024-03-02T10:56:10;36.83;;;15.98;;
51082;SDS011;37131;42.694;23.350;2024-03-02T10:58:47;33.58;;;13.23;;
51082;SDS011;37131;42.694;23.350;2024-03-02T11:01:16;35.75;;;13.70;;
51082;SDS011;37131;42.694;23.350;2024-03-02T11:03:43;32.90;;;12.98;;
51082;SDS011;37131;42.694;23.350;2024-03-02T11:06:09;30.08;;;13.82;;
51082;SDS011;37131;42.694;23.350;2024-03-02T11:08:38;31.88;;;14.32;;
51082;SDS011;37131;42.694;23.350;2024-03-02T11:11:12;33.60;;;13.50;;
51082;SDS011;37131;42.694;23.350;2024-03-02T11:13:49;28.63;;;12.82;;
51082;SDS011;37131;42.694;23.350;2024-03-02T11:16:32;26.58;;;12.63;;
51082;SDS011;37131;42.694;23.350;2024-03-02T11:19:06;32.05;;;12.43;;
51082;SDS011;37131;42.694;23.350;2024-03-02T11:21:34;27.95;;;11.65;;
51082;SDS011;37131;42.694;23.350;2024-03-02T11:24:22;29.98;;;13.82;;
51082;SDS011;37131;42.694;23.350;2024-03-02T11:26:46;33.17;;;12.70;;
51082;SDS011;37131;42.694;23.350;2024-03-02T11:29:42;35.05;;;13.27;;
51082;SDS011;37131;42.694;23.350;2024-03-02T11:32:06;31.85;;;12.18;;
51082;SDS011;37131;42.694;23.350;2024-03-02T11:34:39;30.60;;;11.93;;
51082;SDS011;37131;42.694;23.350;2024-03-02T11:37:14;34.03;;;13.52;;
51082;SDS011;37131;42.694;23.350;2024-03-02T11:42:08;19.45;;;8.98;;
51082;SDS011;37131;42.694;23.350;2024-03-02T11:44:35;24.10;;;9.82;;
51082;SDS011;37131;42.694;23.350;2024-03-02T11:47:02;29.00;;;12.02;;
51082;SDS011;37131;42.694;23.350;2024-03-02T11:49:37;30.40;;;12.23;;
51082;SDS011;37131;42.694;23.350;2024-03-02T11:52:04;33.28;;;13.27;;
51082;SDS011;37131;42.694;23.350;2024-03-02T11:54:31;30.52;;;13.00;;
51082;SDS011;37131;42.694;23.350;2024-03-02T11:57:00;27.65;;;12.32;;
51082;SDS011;37131;42.694;23.350;2024-03-02T11:59:27;27.92;;;12.23;;
51082;SDS011;37131;42.694;23.350;2024-03-02T12:01:54;30.40;;;12.43;;
51082;SDS011;37131;42.694;23.350;2024-03-02T12:04:20;30.23;;;12.60;;
51082;SDS011;37131;42.694;23.350;2024-03-02T12:06:48;29.80;;;12.98;;
51082;SDS011;37131;42.694;23.350;2024-03-02T12:09:20;31.17;;;13.48;;
51082;SDS011;37131;42.694;23.350;2024-03-02T12:11:46;27.08;;;12.52;;
51082;SDS011;37131;42.694;23.350;2024-03-02T12:14:11;24.77;;;12.02;;
51082;SDS011;37131;42.694;23.350;2024-03-02T12:16:43;28.05;;;11.52;;
51082;SDS011;37131;42.694;23.350;2024-03-02T12:19:09;25.20;;;11.90;;
51082;SDS011;37131;42.694;23.350;2024-03-02T12:21:34;29.00;;;12.32;;
51082;SDS011;37131;42.694;23.350;2024-03-02T12:24:00;31.73;;;12.55;;
51082;SDS011;37131;42.694;23.350;2024-03-02T12:26:26;21.55;;;9.32;;
51082;SDS011;37131;42.694;23.350;2024-03-02T12:28:52;25.17;;;11.57;;
51082;SDS011;37131;42.694;23.350;2024-03-02T12:31:18;26.45;;;12.60;;
51082;SDS011;37131;42.694;23.350;2024-03-02T12:33:43;28.30;;;11.98;;
51082;SDS011;37131;42.694;23.350;2024-03-02T12:36:09;25.75;;;11.45;;
51082;SDS011;37131;42.694;23.350;2024-03-02T12:38:37;26.88;;;12.13;;
51082;SDS011;37131;42.694;23.350;2024-03-02T12:41:02;27.25;;;12.85;;
51082;SDS011;37131;42.694;23.350;2024-03-02T12:43:31;25.92;;;12.48;;
51082;SDS011;37131;42.694;23.350;2024-03-02T12:45:56;28.30;;;12.13;;
51082;SDS011;37131;42.694;23.350;2024-03-02T12:48:23;25.73;;;11.75;;
51082;SDS011;37131;42.694;23.350;2024-03-02T12:50:48;23.67;;;11.38;;
51082;SDS011;37131;42.694;23.350;2024-03-02T12:53:14;26.58;;;12.00;;
51082;SDS011;37131;42.694;23.350;2024-03-02T12:55:41;26.33;;;12.63;;
51082;SDS011;37131;42.694;23.350;2024-03-02T12:58:07;25.52;;;12.30;;
51082;SDS011;37131;42.694;23.350;2024-03-02T13:00:32;23.33;;;11.05;;
51082;SDS011;37131;42.694;23.350;2024-03-02T13:03:00;26.95;;;12.80;;
51082;SDS011;37131;42.694;23.350;2024-03-02T13:05:31;25.35;;;11.60;;
51082;SDS011;37131;42.694;23.350;2024-03-02T13:07:58;26.60;;;12.50;;
51082;SDS011;37131;42.694;23.350;2024-03-02T13:10:24;27.02;;;11.95;;
51082;SDS011;37131;42.694;23.350;2024-03-02T13:12:50;25.52;;;12.30;;
51082;SDS011;37131;42.694;23.350;2024-03-02T13:15:15;26.27;;;11.57;;
51082;SDS011;37131;42.694;23.350;2024-03-02T13:17:41;26.70;;;12.07;;
51082;SDS011;37131;42.694;23.350;2024-03-02T13:20:06;29.48;;;10.75;;
51082;SDS011;37131;42.694;23.350;2024-03-02T13:22:35;22.73;;;11.15;;
51082;SDS011;37131;42.694;23.350;2024-03-02T13:25:01;24.10;;;11.40;;
51082;SDS011;37131;42.694;23.350;2024-03-02T13:27:30;21.05;;;10.75;;
51082;SDS011;37131;42.694;23.350;2024-03-02T13:29:57;22.35;;;11.38;;
51082;SDS011;37131;42.694;23.350;2024-03-02T13:32:23;24.10;;;11.75;;
51082;SDS011;37131;42.694;23.350;2024-03-02T13:34:49;28.80;;;11.50;;
51082;SDS011;37131;42.694;23.350;2024-03-02T13:37:14;23.08;;;11.45;;
51082;SDS011;37131;42.694;23.350;2024-03-02T13:39:40;24.33;;;11.77;;
51082;SDS011;37131;42.694;23.350;2024-03-02T13:42:07;24.13;;;10.95;;
51082;SDS011;37131;42.694;23.350;2024-03-02T13:44:38;24.65;;;10.80;;
51082;SDS011;37131;42.694;23.350;2024-03-02T13:47:04;24.17;;;11.55;;
51082;SDS011;37131;42.694;23.350;2024-03-02T13:49:30;24.00;;;11.07;;
51082;SDS011;37131;42.694;23.350;2024-03-02T13:52:00;26.73;;;11.23;;
51082;SDS011;37131;42.694;23.350;2024-03-02T13:54:28;28.08;;;11.70;;
51082;SDS011;37131;42.694;23.350;2024-03-02T13:56:54;24.05;;;12.02;;
51082;SDS011;37131;42.694;23.350;2024-03-02T13:59:19;23.15;;;11.40;;
51082;SDS011;37131;42.694;23.350;2024-03-02T14:01:45;24.70;;;11.65;;
51082;SDS011;37131;42.694;23.350;2024-03-02T14:04:10;26.35;;;12.68;;
51082;SDS011;37131;42.694;23.350;2024-03-02T14:06:35;24.15;;;12.05;;
51082;SDS011;37131;42.694;23.350;2024-03-02T14:09:01;25.45;;;12.82;;